createdAt,value
2023-03-06T00:00:26.137Z,4.03
2023-03-06T00:02:54.460Z,3.53
2023-03-06T00:05:22.043Z,4.05
2023-03-06T00:07:49.496Z,3.92
2023-03-06T00:10:20.177Z,4.13
2023-03-06T00:12:47.796Z,4.38
2023-03-06T00:15:15.224Z,4.13
2023-03-06T00:17:42.719Z,4.93
2023-03-06T00:20:11.975Z,4.35
2023-03-06T00:22:40.346Z,4.57
2023-03-06T00:25:10.641Z,3.88
2023-03-06T00:27:38.049Z,4.05
2023-03-06T00:30:06.096Z,4.15
2023-03-06T00:32:33.427Z,4.05
2023-03-06T00:35:02.348Z,3.95
2023-03-06T00:37:29.817Z,4.18
2023-03-06T00:39:57.204Z,2.88
2023-03-06T00:42:25.915Z,4.35
2023-03-06T00:44:53.467Z,3.92
2023-03-06T00:47:22.393Z,4.15
2023-03-06T00:49:50.627Z,3.70
2023-03-06T00:52:18.025Z,4.07
2023-03-06T00:54:45.411Z,3.92
2023-03-06T00:57:13.148Z,4.13
2023-03-06T00:59:40.683Z,3.97
2023-03-06T01:02:08.123Z,5.57
2023-03-06T01:04:36.236Z,5.80
2023-03-06T01:07:04.914Z,7.15
2023-03-06T01:09:32.350Z,6.18
2023-03-06T01:11:59.787Z,5.57
2023-03-06T01:14:28.788Z,6.65
2023-03-06T01:16:56.273Z,6.65
2023-03-06T01:19:23.649Z,6.85
2023-03-06T01:21:51.091Z,5.55
2023-03-06T01:24:18.480Z,5.25
2023-03-06T01:26:45.855Z,6.13
2023-03-06T01:29:13.295Z,5.63
2023-03-06T01:31:40.758Z,6.07
2023-03-06T01:34:08.378Z,4.85
2023-03-06T01:36:35.934Z,5.93
2023-03-06T01:39:03.848Z,5.88
2023-03-06T01:41:32.700Z,5.47
2023-03-06T01:44:00.397Z,5.93
2023-03-06T01:46:44.591Z,5.28
2023-03-06T01:49:33.393Z,4.35
2023-03-06T01:52:11.214Z,4.65
2023-03-06T01:55:04.342Z,4.70
2023-03-06T01:57:35.379Z,4.95
2023-03-06T02:00:10.761Z,4.72
2023-03-06T02:02:44.659Z,4.90
2023-03-06T02:05:12.435Z,4.78
2023-03-06T02:07:42.452Z,5.45
2023-03-06T02:10:13.482Z,5.00
2023-03-06T02:12:43.721Z,5.65
2023-03-06T02:15:14.128Z,4.25
2023-03-06T02:17:44.136Z,5.28
2023-03-06T02:20:19.994Z,4.07
2023-03-06T02:22:56.777Z,5.07
2023-03-06T02:25:36.845Z,4.78
2023-03-06T02:28:08.500Z,4.72
2023-03-06T02:30:36.744Z,3.00
2023-03-06T02:33:05.088Z,4.65
2023-03-06T02:35:35.008Z,4.60
2023-03-06T02:38:08.098Z,4.85
2023-03-06T02:40:35.523Z,5.35
2023-03-06T02:43:03.115Z,5.68
2023-03-06T02:45:42.589Z,4.93
2023-03-06T02:48:10.378Z,3.05
2023-03-06T02:50:37.738Z,4.50
2023-03-06T02:53:05.942Z,5.13
2023-03-06T02:55:34.163Z,4.70
2023-03-06T02:58:02.589Z,4.15
2023-03-06T03:00:31.047Z,4.03
2023-03-06T03:03:01.317Z,4.28
2023-03-06T03:05:28.771Z,3.60
2023-03-06T03:08:01.370Z,3.58
2023-03-06T03:10:29.545Z,3.72
2023-03-06T03:12:58.299Z,4.30
2023-03-06T03:15:26.517Z,3.97
2023-03-06T03:17:53.899Z,3.88
2023-03-06T03:20:23.164Z,3.03
2023-03-06T03:22:54.119Z,3.00
2023-03-06T03:25:23.403Z,3.75
2023-03-06T03:27:52.076Z,1.90
2023-03-06T03:30:20.489Z,3.33
2023-03-06T03:32:47.948Z,3.30
2023-03-06T03:35:15.445Z,3.20
2023-03-06T03:37:42.800Z,3.55
2023-03-06T03:40:10.725Z,2.65
2023-03-06T03:42:38.258Z,3.50
2023-03-06T03:45:07.170Z,2.45
2023-03-06T03:47:34.540Z,2.88
2023-03-06T03:50:02.622Z,2.60
2023-03-06T03:52:30.312Z,2.88
2023-03-06T03:54:58.110Z,2.88
2023-03-06T03:57:26.646Z,3.38
2023-03-06T03:59:55.852Z,2.65
2023-03-06T04:02:49.559Z,2.75
2023-03-06T04:05:24.924Z,3.47
2023-03-06T04:07:52.395Z,3.33
2023-03-06T04:10:20.702Z,3.28
2023-03-06T04:12:48.046Z,3.47
2023-03-06T04:15:15.974Z,4.25
2023-03-06T04:17:45.384Z,3.95
2023-03-06T04:20:16.332Z,2.15
2023-03-06T04:22:44.862Z,4.45
2023-03-06T04:25:13.294Z,3.97
2023-03-06T04:27:40.978Z,3.40
2023-03-06T04:30:09.450Z,2.75
2023-03-06T04:32:36.961Z,2.85
2023-03-06T04:35:05.882Z,3.83
2023-03-06T04:37:38.721Z,3.55
2023-03-06T04:40:07.124Z,3.65
2023-03-06T04:42:34.677Z,3.42
2023-03-06T04:45:02.267Z,3.50
2023-03-06T04:47:29.609Z,2.50
2023-03-06T04:49:57.029Z,2.80
2023-03-06T04:52:24.383Z,3.03
2023-03-06T04:54:51.794Z,2.90
2023-03-06T04:57:19.146Z,2.85
2023-03-06T04:59:46.600Z,3.10
2023-03-06T05:02:13.976Z,2.22
2023-03-06T05:04:41.358Z,2.72
2023-03-06T05:07:10.730Z,2.95
2023-03-06T05:09:39.181Z,3.47
2023-03-06T05:12:06.847Z,2.60
2023-03-06T05:14:34.306Z,2.75
2023-03-06T05:17:01.698Z,3.45
2023-03-06T05:19:29.177Z,3.28
2023-03-06T05:21:56.526Z,2.92
2023-03-06T05:24:24.123Z,3.03
2023-03-06T05:26:54.031Z,3.25
2023-03-06T05:29:21.603Z,2.63
2023-03-06T05:31:49.067Z,1.95
2023-03-06T05:34:17.452Z,2.00
2023-03-06T05:36:46.410Z,1.98
2023-03-06T05:39:13.945Z,2.10
2023-03-06T05:41:41.286Z,1.67
2023-03-06T05:44:08.704Z,1.90
2023-03-06T05:46:36.083Z,1.55
2023-03-06T05:49:03.416Z,1.75
2023-03-06T05:51:31.125Z,1.70
2023-03-06T05:53:58.455Z,1.63
2023-03-06T05:56:26.104Z,2.17
2023-03-06T05:58:53.554Z,1.50
2023-03-06T06:01:21.441Z,1.27
2023-03-06T06:03:48.993Z,2.08
2023-03-06T06:06:16.424Z,1.83
2023-03-06T06:08:44.148Z,2.28
2023-03-06T06:11:12.401Z,2.15
2023-03-06T06:13:40.392Z,2.33
2023-03-06T06:16:12.790Z,2.00
2023-03-06T06:18:41.436Z,1.38
2023-03-06T06:21:11.127Z,1.58
2023-03-06T06:23:38.684Z,1.70
2023-03-06T06:26:08.186Z,1.90
2023-03-06T06:28:36.691Z,1.65
2023-03-06T06:31:12.351Z,1.90
2023-03-06T06:33:40.990Z,2.08
2023-03-06T06:36:21.713Z,1.77
2023-03-06T06:38:50.015Z,2.38
2023-03-06T06:44:08.544Z,2.10
2023-03-06T06:47:20.842Z,1.83
2023-03-06T06:49:24.554Z,1.33
2023-03-06T06:51:51.907Z,1.40
2023-03-06T06:54:20.171Z,0.65
2023-03-06T06:56:47.640Z,1.35
2023-03-06T06:59:17.175Z,0.93
2023-03-06T07:01:45.182Z,0.90
2023-03-06T07:04:13.940Z,1.25
2023-03-06T07:06:42.632Z,0.85
2023-03-06T07:09:10.198Z,1.48
2023-03-06T07:11:38.978Z,0.85
2023-03-06T07:14:06.462Z,0.70
2023-03-06T07:16:34.359Z,0.60
2023-03-06T07:19:01.783Z,1.00
2023-03-06T07:21:29.315Z,0.95
2023-03-06T07:23:57.587Z,1.13
2023-03-06T07:26:26.128Z,1.08
2023-03-06T07:28:54.987Z,0.93
2023-03-06T07:31:25.497Z,1.00
2023-03-06T07:33:54.261Z,1.17
2023-03-06T07:36:23.070Z,1.25
2023-03-06T07:38:50.706Z,0.80
2023-03-06T07:41:21.797Z,1.33
2023-03-06T07:43:50.312Z,1.35
2023-03-06T07:46:18.100Z,1.27
2023-03-06T07:48:45.638Z,0.90
2023-03-06T07:51:23.018Z,1.05
2023-03-06T07:53:50.580Z,1.15
2023-03-06T07:56:17.957Z,1.10
2023-03-06T07:58:46.630Z,1.38
2023-03-06T08:01:20.331Z,1.25
2023-03-06T08:03:50.085Z,1.00
2023-03-06T08:06:21.191Z,0.85
2023-03-06T08:08:49.514Z,1.17
2023-03-06T08:11:18.669Z,0.80
2023-03-06T08:13:48.729Z,1.13
2023-03-06T08:16:17.672Z,0.85
2023-03-06T08:18:46.574Z,1.27
2023-03-06T08:21:16.646Z,1.00
2023-03-06T08:23:45.046Z,1.38
2023-03-06T08:26:18.306Z,1.73
2023-03-06T08:28:46.285Z,0.90
2023-03-06T08:31:32.284Z,0.70
2023-03-06T08:34:03.272Z,0.95
2023-03-06T08:36:30.938Z,1.20
2023-03-06T08:38:58.728Z,1.00
2023-03-06T08:41:26.446Z,0.80
2023-03-06T08:43:54.112Z,1.00
2023-03-06T08:46:23.834Z,0.70
2023-03-06T08:48:51.851Z,1.30
2023-03-06T08:51:19.971Z,1.02
2023-03-06T08:53:47.917Z,0.95
2023-03-06T08:56:19.757Z,0.90
2023-03-06T08:58:47.858Z,0.82
2023-03-06T09:01:22.478Z,0.95
2023-03-06T09:03:50.067Z,0.98
2023-03-06T09:06:17.708Z,0.80
2023-03-06T09:08:45.193Z,0.82
2023-03-06T09:11:14.686Z,0.63
2023-03-06T09:13:43.156Z,0.70
2023-03-06T09:16:11.642Z,0.80
2023-03-06T09:18:39.857Z,0.85
2023-03-06T09:21:08.357Z,1.20
2023-03-06T09:23:37.259Z,0.70
2023-03-06T09:26:05.360Z,0.93
2023-03-06T09:28:34.824Z,0.80
2023-03-06T09:31:05.559Z,0.82
2023-03-06T09:33:33.462Z,0.90
2023-03-06T09:36:02.201Z,1.10
2023-03-06T09:38:29.641Z,0.57
2023-03-06T09:41:11.305Z,0.50
2023-03-06T09:43:41.687Z,0.73
2023-03-06T09:46:35.208Z,0.60
2023-03-06T09:49:40.015Z,0.70
2023-03-06T09:52:23.977Z,0.88
2023-03-06T09:55:15.115Z,1.00
2023-03-06T09:58:07.262Z,0.55
2023-03-06T10:00:37.158Z,0.65
2023-03-06T10:03:21.796Z,0.85
2023-03-06T10:06:04.260Z,1.13
2023-03-06T10:08:49.229Z,1.00
2023-03-06T10:11:26.275Z,0.90
2023-03-06T10:14:27.316Z,0.95
2023-03-06T10:16:56.157Z,0.90
2023-03-06T10:19:30.858Z,1.10
2023-03-06T10:22:07.250Z,0.73
2023-03-06T10:25:02.809Z,0.52
2023-03-06T10:27:43.853Z,0.68
2023-03-06T10:30:30.414Z,0.75
2023-03-06T10:33:01.433Z,0.90
2023-03-06T10:35:32.959Z,0.70
2023-03-06T10:38:23.229Z,1.02
2023-03-06T10:41:47.385Z,0.95
2023-03-06T10:44:14.743Z,0.85
2023-03-06T10:46:44.868Z,1.00
2023-03-06T10:49:27.453Z,0.77
2023-03-06T10:51:57.956Z,0.88
2023-03-06T10:54:25.587Z,0.38
2023-03-06T10:56:53.001Z,0.80
2023-03-06T10:59:28.183Z,0.82
2023-03-06T11:02:23.902Z,0.80
2023-03-06T11:04:55.640Z,0.90
2023-03-06T11:07:26.082Z,0.90
2023-03-06T11:10:01.802Z,0.85
2023-03-06T11:12:39.984Z,1.05
2023-03-06T11:15:07.681Z,1.00
2023-03-06T11:17:38.280Z,1.23
2023-03-06T11:20:14.862Z,1.23
2023-03-06T11:22:48.767Z,1.08
2023-03-06T11:25:19.904Z,1.08
2023-03-06T11:27:57.781Z,1.10
2023-03-06T11:30:33.345Z,0.93
2023-03-06T11:33:05.938Z,1.23
2023-03-06T11:36:08.368Z,1.05
2023-03-06T11:38:50.236Z,0.95
2023-03-06T11:41:49.827Z,1.30
2023-03-06T11:44:30.544Z,1.40
2023-03-06T11:47:36.787Z,0.80
2023-03-06T11:50:17.787Z,1.20
2023-03-06T11:52:48.226Z,1.17
2023-03-06T11:55:44.855Z,1.23
2023-03-06T11:58:53.467Z,1.27
2023-03-06T12:01:33.815Z,1.17
2023-03-06T12:04:35.475Z,1.45
2023-03-06T12:07:33.836Z,1.50
2023-03-06T12:10:10.163Z,1.92
2023-03-06T12:12:43.410Z,1.92
2023-03-06T12:15:32.043Z,2.13
2023-03-06T12:18:17.024Z,2.22
2023-03-06T12:21:15.398Z,1.60
2023-03-06T12:24:05.436Z,1.85
2023-03-06T12:26:33.026Z,2.22
2023-03-06T12:29:18.620Z,2.80
2023-03-06T12:32:28.986Z,2.67
2023-03-06T12:35:18.539Z,2.40
2023-03-06T12:38:25.682Z,2.90
2023-03-06T12:41:33.338Z,2.97
2023-03-06T12:44:19.660Z,3.30
2023-03-06T12:46:54.155Z,3.50
2023-03-06T12:49:38.603Z,3.20
2023-03-06T12:52:09.785Z,3.80
2023-03-06T12:54:39.807Z,3.75
2023-03-06T12:57:09.427Z,3.38
2023-03-06T12:59:48.612Z,4.10
2023-03-06T13:02:46.199Z,4.00
2023-03-06T13:05:24.225Z,3.60
2023-03-06T13:08:11.128Z,4.40
2023-03-06T13:10:41.753Z,4.70
2023-03-06T13:13:32.322Z,4.75
2023-03-06T13:16:21.401Z,3.45
2023-03-06T13:19:00.815Z,4.78
2023-03-06T13:21:47.982Z,4.13
2023-03-06T13:24:18.516Z,4.20
2023-03-06T13:26:45.847Z,4.55
2023-03-06T13:29:39.095Z,4.60
2023-03-06T13:32:17.361Z,3.88
2023-03-06T13:34:50.073Z,4.20
2023-03-06T13:37:17.481Z,4.50
2023-03-06T13:40:11.068Z,4.50
2023-03-06T13:43:03.141Z,3.50
2023-03-06T13:45:38.661Z,3.55
2023-03-06T13:48:30.234Z,3.58
2023-03-06T13:50:55.947Z,3.15
2023-03-06T13:53:29.205Z,3.10
2023-03-06T13:56:06.576Z,3.85
2023-03-06T13:58:47.949Z,3.90
2023-03-06T14:01:33.998Z,3.50
2023-03-06T14:04:32.760Z,3.70
2023-03-06T14:07:22.439Z,3.17
2023-03-06T14:10:00.562Z,2.85
2023-03-06T14:12:35.390Z,2.88
2023-03-06T14:15:26.069Z,2.70
2023-03-06T14:18:06.474Z,2.90
2023-03-06T14:20:45.883Z,3.08
2023-03-06T14:23:15.536Z,3.45
2023-03-06T14:25:45.804Z,2.08
2023-03-06T14:28:28.187Z,2.80
2023-03-06T14:30:57.032Z,2.92
2023-03-06T14:33:50.762Z,3.13
2023-03-06T14:36:24.296Z,3.13
2023-03-06T14:38:59.519Z,2.90
2023-03-06T14:41:34.763Z,2.33
2023-03-06T14:44:19.403Z,2.67
2023-03-06T14:46:49.826Z,2.58
2023-03-06T14:49:20.594Z,2.65
2023-03-06T14:51:56.916Z,2.17
2023-03-06T14:54:31.829Z,2.85
2023-03-06T14:57:06.407Z,2.38
2023-03-06T14:59:43.427Z,1.35
2023-03-06T15:02:18.584Z,2.03
2023-03-06T15:04:51.308Z,1.92
2023-03-06T15:07:30.442Z,2.58
2023-03-06T15:09:58.416Z,2.67
2023-03-06T15:12:33.852Z,1.90
2023-03-06T15:15:08.045Z,2.58
2023-03-06T15:17:41.300Z,2.65
2023-03-06T15:20:47.489Z,2.42
2023-03-06T15:23:27.263Z,2.53
2023-03-06T15:26:18.394Z,2.55
2023-03-06T15:28:47.528Z,2.45
2023-03-06T15:31:21.997Z,2.30
2023-03-06T15:34:23.722Z,3.08
2023-03-06T15:36:57.519Z,2.63
2023-03-06T15:39:41.631Z,3.17
2023-03-06T15:42:26.363Z,2.92
2023-03-06T15:45:03.276Z,3.88
2023-03-06T15:47:31.104Z,3.40
2023-03-06T15:49:58.629Z,2.75
2023-03-06T15:52:26.027Z,3.03
2023-03-06T15:54:53.483Z,3.63
2023-03-06T15:57:24.980Z,4.13
2023-03-06T15:59:53.620Z,4.80
2023-03-06T16:02:23.143Z,5.30
2023-03-06T16:04:52.634Z,3.92
2023-03-06T16:07:20.705Z,3.45
2023-03-06T16:09:48.358Z,5.68
2023-03-06T16:12:18.594Z,4.60
2023-03-06T16:14:50.249Z,4.25
2023-03-06T16:17:17.782Z,3.70
2023-03-06T16:19:45.251Z,5.95
2023-03-06T16:22:12.883Z,5.35
2023-03-06T16:24:43.337Z,6.68
2023-03-06T16:27:18.874Z,5.70
2023-03-06T16:29:46.586Z,5.22
2023-03-06T16:32:14.160Z,5.30
2023-03-06T16:34:41.709Z,7.13
2023-03-06T16:37:12.774Z,6.10
2023-03-06T16:39:40.266Z,5.75
2023-03-06T16:42:07.748Z,6.35
2023-03-06T16:44:35.128Z,7.55
2023-03-06T16:47:02.533Z,3.10
2023-03-06T16:49:30.448Z,6.30
2023-03-06T16:51:58.202Z,4.50
2023-03-06T16:54:26.358Z,5.80
2023-03-06T16:56:54.028Z,5.38
2023-03-06T16:59:21.569Z,5.03
2023-03-06T17:01:49.077Z,4.80
2023-03-06T17:04:16.570Z,5.03
2023-03-06T17:06:44.044Z,5.18
2023-03-06T17:09:11.629Z,4.43
2023-03-06T17:11:39.054Z,4.30
2023-03-06T17:14:07.080Z,4.30
2023-03-06T17:16:37.277Z,3.90
2023-03-06T17:19:04.819Z,4.63
2023-03-06T17:21:35.328Z,4.70
2023-03-06T17:24:03.890Z,2.97
2023-03-06T17:26:31.394Z,5.18
2023-03-06T17:28:58.897Z,5.70
2023-03-06T17:31:28.080Z,5.40
2023-03-06T17:34:00.557Z,4.68
2023-03-06T17:36:29.496Z,4.88
2023-03-06T17:39:01.973Z,6.28
2023-03-06T17:41:32.785Z,4.72
2023-03-06T17:44:01.636Z,5.50
2023-03-06T17:46:29.158Z,6.22
2023-03-06T17:48:56.751Z,5.05
2023-03-06T17:51:31.943Z,5.72
2023-03-06T17:53:59.434Z,6.07
2023-03-06T17:56:27.497Z,5.22
2023-03-06T17:58:55.356Z,5.20
2023-03-06T18:01:27.305Z,7.60
2023-03-06T18:03:54.887Z,6.45
2023-03-06T18:06:22.776Z,4.38
2023-03-06T18:08:52.745Z,7.32
2023-03-06T18:11:27.599Z,7.32
2023-03-06T18:13:55.145Z,7.47
2023-03-06T18:16:24.324Z,4.97
2023-03-06T18:18:53.664Z,6.22
2023-03-06T18:21:22.219Z,7.28
2023-03-06T18:23:51.579Z,5.72
2023-03-06T18:26:22.860Z,6.38
2023-03-06T18:28:55.488Z,5.90
2023-03-06T18:31:27.919Z,5.95
2023-03-06T18:33:58.429Z,5.45
2023-03-06T18:36:28.480Z,7.03
2023-03-06T18:38:56.838Z,6.18
2023-03-06T18:41:24.913Z,6.25
2023-03-06T18:43:56.990Z,7.40
2023-03-06T18:46:25.970Z,3.53
2023-03-06T18:48:54.679Z,6.97
2023-03-06T18:51:22.357Z,7.03
2023-03-06T18:53:49.747Z,6.78
2023-03-06T18:56:20.268Z,6.57
2023-03-06T18:58:48.684Z,7.97
2023-03-06T19:01:17.018Z,6.97
2023-03-06T19:03:45.205Z,7.18
2023-03-06T19:06:16.816Z,6.63
2023-03-06T19:08:44.883Z,6.82
2023-03-06T19:11:17.036Z,7.00
2023-03-06T19:13:45.010Z,5.22
2023-03-06T19:16:21.331Z,7.32
2023-03-06T19:18:49.049Z,6.40
2023-03-06T19:21:19.404Z,7.45
2023-03-06T19:23:47.349Z,6.90
2023-03-06T19:26:15.512Z,7.35
2023-03-06T19:28:43.286Z,5.60
2023-03-06T19:31:16.299Z,6.95
2023-03-06T19:33:43.838Z,6.95
2023-03-06T19:36:13.450Z,7.75
2023-03-06T19:38:42.009Z,8.57
2023-03-06T19:41:13.882Z,6.63
2023-03-06T19:43:43.100Z,5.43
2023-03-06T19:46:14.430Z,7.47
2023-03-06T19:48:42.612Z,7.60
2023-03-06T19:51:10.723Z,8.18
2023-03-06T19:53:39.876Z,7.88
2023-03-06T19:56:19.817Z,7.22
2023-03-06T19:58:47.588Z,6.20
2023-03-06T20:01:17.738Z,7.72
2023-03-06T20:03:45.256Z,7.30
2023-03-06T20:06:18.581Z,8.65
2023-03-06T20:08:47.223Z,7.60
2023-03-06T20:11:20.016Z,9.43
2023-03-06T20:13:48.041Z,6.78
2023-03-06T20:16:16.539Z,6.60
2023-03-06T20:18:44.731Z,6.43
2023-03-06T20:21:12.650Z,6.13
2023-03-06T20:23:40.852Z,7.07
2023-03-06T20:26:11.987Z,8.52
2023-03-06T20:28:40.678Z,10.93
2023-03-06T20:31:18.717Z,7.85
2023-03-06T20:33:47.868Z,7.80
2023-03-06T20:36:17.670Z,4.95
2023-03-06T20:38:45.760Z,8.02
2023-03-06T20:41:17.972Z,6.15
2023-03-06T20:43:45.784Z,7.75
2023-03-06T20:46:15.907Z,7.35
2023-03-06T20:48:43.898Z,7.82
2023-03-06T20:51:21.179Z,6.68
2023-03-06T20:53:50.202Z,8.55
2023-03-06T20:56:19.766Z,8.18
2023-03-06T20:58:47.225Z,6.65
2023-03-06T21:01:25.877Z,5.95
2023-03-06T21:03:53.759Z,6.78
2023-03-06T21:06:21.727Z,7.18
2023-03-06T21:08:49.486Z,7.50
2023-03-06T21:11:18.054Z,6.25
2023-03-06T21:13:45.909Z,8.18
2023-03-06T21:16:18.023Z,6.85
2023-03-06T21:18:46.384Z,8.57
2023-03-06T21:21:17.028Z,6.07
2023-03-06T21:23:45.553Z,6.65
2023-03-06T21:26:14.828Z,6.18
2023-03-06T21:28:42.701Z,7.97
2023-03-06T21:31:12.334Z,8.20
2023-03-06T21:33:40.197Z,5.90
2023-03-06T21:36:08.109Z,4.30
2023-03-06T21:38:35.640Z,5.60
2023-03-06T21:41:08.118Z,8.38
2023-03-06T21:43:35.703Z,6.55
2023-03-06T21:46:03.561Z,4.43
2023-03-06T21:48:31.288Z,4.55
2023-03-06T21:51:11.216Z,5.18
2023-03-06T21:53:41.045Z,3.47
2023-03-06T21:56:09.570Z,3.22
2023-03-06T21:58:38.530Z,3.95
2023-03-06T22:01:14.014Z,3.70
2023-03-06T22:03:41.516Z,2.47
2023-03-06T22:06:14.631Z,2.95
2023-03-06T22:08:43.027Z,2.70
2023-03-06T22:11:17.531Z,2.88
2023-03-06T22:13:45.674Z,3.60
2023-03-06T22:16:14.334Z,2.30
2023-03-06T22:18:45.561Z,2.85
2023-03-06T22:21:15.550Z,2.95
2023-03-06T22:23:43.774Z,3.08
2023-03-06T22:26:13.681Z,2.42
2023-03-06T22:28:42.589Z,2.47
2023-03-06T22:31:16.485Z,1.52
2023-03-06T22:33:44.184Z,2.50
2023-03-06T22:36:15.806Z,1.08
2023-03-06T22:38:45.251Z,1.42
2023-03-06T22:41:17.081Z,1.65
2023-03-06T22:43:47.019Z,1.75
2023-03-06T22:46:16.959Z,1.05
2023-03-06T22:48:44.975Z,1.40
2023-03-06T22:51:15.291Z,1.23
2023-03-06T22:53:43.269Z,1.85
2023-03-06T22:56:15.021Z,2.00
2023-03-06T22:58:44.716Z,2.40
2023-03-06T23:01:13.745Z,2.10
2023-03-06T23:03:43.669Z,2.58
2023-03-06T23:06:14.395Z,1.77
2023-03-06T23:08:42.634Z,2.45
2023-03-06T23:11:12.911Z,4.10
2023-03-06T23:13:59.263Z,4.72
2023-03-06T23:16:45.641Z,2.78
2023-03-06T23:19:31.796Z,4.30
2023-03-06T23:22:18.205Z,3.55
2023-03-06T23:25:05.993Z,3.92
2023-03-06T23:27:35.998Z,4.13
2023-03-06T23:30:06.042Z,5.13
2023-03-06T23:32:33.833Z,4.15
2023-03-06T23:35:01.516Z,4.90
2023-03-06T23:37:30.472Z,3.85
2023-03-06T23:39:58.113Z,3.92
2023-03-06T23:42:25.510Z,3.28
2023-03-06T23:44:52.907Z,3.30
2023-03-06T23:47:20.289Z,2.80
2023-03-06T23:49:47.726Z,3.45
2023-03-06T23:52:15.057Z,3.25
2023-03-06T23:54:42.445Z,3.05
2023-03-06T23:57:10.098Z,3.25
2023-03-06T23:59:37.526Z,2.55
